Time;durP1;ratioP1;P1;durP2;ratioP2;P2;SDS_P1;SDS_P2;PMS_P1;PMS_P2;Temp;Humidity;BMP_temperature;BMP_pressure;BME280_temperature;BME280_humidity;BME280_pressure;Samples;Min_cycle;Max_cycle;Signal;HPM_P1;HPM_P2
2023/08/16 00:09:00;;;;;;;14.82;7.85;;;;;;;25.62;100.00;100787.69;20907712;28;20057;-72
2023/08/16 00:19:25;;;;;;;11.55;8.23;;;;;;;25.56;100.00;100788.84;20885909;28;20041;-73
2023/08/16 00:29:48;;;;;;;11.15;8.07;;;;;;;25.42;100.00;100788.56;20886595;28;20049;-73
2023/08/16 00:40:12;;;;;;;11.40;7.38;;;;;;;25.40;100.00;100788.66;20928466;28;20467;-72
2023/08/16 00:50:35;;;;;;;12.20;7.80;;;;;;;25.35;100.00;100787.09;20896951;28;20076;-73
2023/08/16 01:01:01;;;;;;;18.48;8.10;;;;;;;25.30;100.00;100776.50;20911951;28;20657;-74
2023/08/16 01:11:28;;;;;;;11.40;7.60;;;;;;;25.19;100.00;100773.41;20882646;28;20102;-72
2023/08/16 01:22:00;;;;;;;13.52;7.32;;;;;;;25.15;100.00;100762.78;20904572;28;20045;-72
2023/08/16 01:32:24;;;;;;;10.13;7.65;;;;;;;24.99;100.00;100765.31;20883978;28;20284;-72
2023/08/16 01:42:28;;;;;;;11.30;7.57;;;;;;;24.90;100.00;100760.28;20921488;28;20132;-73
2023/08/16 01:52:53;;;;;;;13.00;7.97;;;;;;;24.90;100.00;100754.88;20884394;28;20099;-73
2023/08/16 02:03:16;;;;;;;10.65;7.15;;;;;;;24.88;100.00;100756.72;20879420;28;20059;-74
2023/08/16 02:13:40;;;;;;;14.25;7.22;;;;;;;24.84;100.00;100763.22;20893080;28;20668;-73
2023/08/16 02:24:04;;;;;;;11.40;7.10;;;;;;;24.88;100.00;100756.72;20874141;28;20095;-73
2023/08/16 02:34:28;;;;;;;11.02;7.25;;;;;;;24.95;100.00;100745.63;20875773;28;20398;-73
2023/08/16 02:44:51;;;;;;;10.82;8.10;;;;;;;25.03;100.00;100748.00;20880780;28;20559;-73
2023/08/16 02:55:15;;;;;;;12.48;8.05;;;;;;;25.05;100.00;100751.53;20894886;28;20052;-73
2023/08/16 03:05:37;;;;;;;10.38;8.13;;;;;;;25.07;100.00;100748.75;20903815;28;20053;-72
2023/08/16 03:16:01;;;;;;;12.25;7.57;;;;;;;25.10;100.00;100752.19;20903065;28;20103;-73
2023/08/16 03:26:24;;;;;;;11.85;7.72;;;;;;;25.16;100.00;100762.72;20890808;28;20045;-73
2023/08/16 03:36:49;;;;;;;13.35;8.13;;;;;;;25.20;100.00;100771.59;20889938;28;20055;-73
2023/08/16 03:47:12;;;;;;;11.27;7.50;;;;;;;25.31;100.00;100762.03;20888974;28;20053;-73
2023/08/16 03:57:36;;;;;;;12.85;8.15;;;;;;;25.42;100.00;100766.94;20916112;28;20160;-73
2023/08/16 04:07:58;;;;;;;14.38;6.97;;;;;;;25.50;100.00;100767.50;20881749;28;20136;-74
2023/08/16 04:18:22;;;;;;;12.35;7.80;;;;;;;25.61;100.00;100775.13;20915438;28;20049;-73
2023/08/16 04:28:38;;;;;;;14.98;7.32;;;;;;;25.80;100.00;100787.72;20927247;28;20444;-73
2023/08/16 04:39:03;;;;;;;10.82;6.50;;;;;;;26.04;100.00;100799.22;20854607;28;20140;-73
2023/08/16 04:49:26;;;;;;;13.07;6.82;;;;;;;26.22;100.00;100804.69;20893833;28;20049;-73
2023/08/16 04:59:51;;;;;;;9.20;5.32;;;;;;;26.58;100.00;100806.50;20900693;28;20084;-73
2023/08/16 05:09:54;;;;;;;10.80;5.75;;;;;;;27.20;100.00;100802.44;20898360;28;20508;-73
2023/08/16 05:20:20;;;;;;;7.88;4.22;;;;;;;28.29;100.00;100802.88;20885484;28;20451;-73
2023/08/16 05:30:43;;;;;;;9.45;4.18;;;;;;;29.19;100.00;100792.97;20893935;28;20556;-73
2023/08/16 05:41:08;;;;;;;11.88;4.30;;;;;;;30.02;100.00;100775.94;20881965;28;20045;-74
2023/08/16 05:51:30;;;;;;;8.02;3.47;;;;;;;31.03;100.00;100780.97;20889156;28;20049;-72
2023/08/16 06:01:34;;;;;;;8.23;3.92;;;;;;;31.56;100.00;100779.97;20911054;28;20037;-72
2023/08/16 06:11:57;;;;;;;10.13;4.32;;;;;;;32.27;99.97;100785.69;20888775;28;21084;-72
2023/08/16 06:22:21;;;;;;;6.97;3.67;;;;;;;32.75;95.88;100775.69;20873917;28;20786;-73
2023/08/16 06:32:44;;;;;;;9.90;3.92;;;;;;;33.36;89.17;100778.25;20875189;28;20064;-73
2023/08/16 06:43:08;;;;;;;7.75;3.72;;;;;;;33.64;81.17;100780.53;20922263;28;20052;-72
2023/08/16 06:53:33;;;;;;;6.70;3.72;;;;;;;33.65;77.57;100786.91;20912593;28;20045;-72
2023/08/16 07:03:57;;;;;;;;;;;;;;;33.65;73.06;100784.16;20885539;28;20139;-72
2023/08/16 07:14:20;;;;;;;6.82;3.80;;;;;;;34.26;71.40;100797.41;20875483;28;19920;-73
2023/08/16 07:24:44;;;;;;;9.13;4.40;;;;;;;34.10;68.35;100796.88;20892804;28;20053;-74
2023/08/16 07:35:07;;;;;;;9.00;3.80;;;;;;;34.16;69.65;100790.91;20891291;28;20388;-73
2023/08/16 07:45:32;;;;;;;9.10;4.70;;;;;;;34.33;70.68;100787.66;20888284;28;20108;-72
2023/08/16 07:55:54;;;;;;;8.97;4.40;;;;;;;34.13;73.57;100782.06;20855269;28;20049;-73
2023/08/16 08:06:18;;;;;;;10.27;5.13;;;;;;;34.34;74.53;100774.81;20899410;28;20102;-73
2023/08/16 08:16:41;;;;;;;11.55;5.00;;;;;;;34.03;74.00;100784.69;20929622;28;20063;-73
2023/08/16 08:27:05;;;;;;;12.75;4.72;;;;;;;34.09;73.01;100769.59;20922677;28;20397;-73
2023/08/16 08:37:28;;;;;;;10.38;5.45;;;;;;;34.15;70.41;100782.78;20884115;28;20045;-72
2023/08/16 08:47:53;;;;;;;11.13;5.53;;;;;;;34.19;72.29;100782.44;20896088;28;20049;-71
2023/08/16 08:58:17;;;;;;;;;;;;;;;34.98;69.20;100784.00;20870861;28;20045;-73
2023/08/16 09:08:43;;;;;;;11.32;6.15;;;;;;;35.44;61.72;100788.25;20894558;28;19921;-73
2023/08/16 09:19:14;;;;;;;12.63;6.13;;;;;;;35.56;56.59;100790.78;20920653;28;20052;-72
2023/08/16 09:29:40;;;;;;;11.02;6.20;;;;;;;36.28;53.57;100790.72;20881737;28;20127;-74
2023/08/16 09:40:06;;;;;;;10.13;5.13;;;;;;;36.79;49.92;100772.28;20887657;28;20485;-73
2023/08/16 09:50:33;;;;;;;8.30;5.50;;;;;;;36.81;46.21;100776.63;20892149;28;20127;-73
2023/08/16 10:00:58;;;;;;;11.55;5.55;;;;;;;36.55;46.55;100769.91;20894072;28;20103;-73
2023/08/16 10:11:23;;;;;;;10.20;5.80;;;;;;;36.53;46.71;100756.28;20892310;28;20057;-72
2023/08/16 10:21:49;;;;;;;11.02;6.50;;;;;;;36.65;46.60;100748.78;20888113;28;20037;-71
2023/08/16 10:32:16;;;;;;;8.77;6.13;;;;;;;36.89;46.28;100748.38;20916870;28;20666;-72
2023/08/16 10:42:52;;;;;;;12.77;7.07;;;;;;;36.59;45.54;100744.72;20911906;28;20067;-70
2023/08/16 10:53:19;;;;;;;10.60;7.38;;;;;;;36.69;44.76;100747.50;20863021;28;20037;-73
2023/08/16 11:03:43;;;;;;;11.57;7.60;;;;;;;36.58;44.99;100733.84;20874676;28;20052;-73
2023/08/16 11:14:08;;;;;;;14.10;7.82;;;;;;;36.42;44.83;100726.16;20875651;28;20060;-72
2023/08/16 11:24:32;;;;;;;;;;;;;;;36.64;45.52;100725.91;20881533;28;20055;-72
2023/08/16 11:34:57;;;;;;;13.05;7.10;;;;;;;36.44;45.90;100704.00;20903539;28;19921;-71
2023/08/16 11:45:21;;;;;;;11.30;7.05;;;;;;;36.72;45.92;100693.03;20897270;28;20237;-72
2023/08/16 11:55:45;;;;;;;;;;;;;;;36.90;46.29;100701.41;20911973;28;20447;-73
2023/08/16 12:06:09;;;;;;;10.67;6.43;;;;;;;36.79;46.96;100697.94;20890520;28;20046;-72
2023/08/16 12:16:33;;;;;;;11.05;6.25;;;;;;;37.01;46.55;100693.00;20861403;28;20103;-72
2023/08/16 12:26:55;;;;;;;9.82;6.18;;;;;;;36.86;46.66;100685.34;20911965;28;20052;-73
2023/08/16 12:37:19;;;;;;;13.85;6.75;;;;;;;36.68;46.11;100683.34;20901477;28;20068;-73
2023/08/16 12:47:41;;;;;;;12.83;6.30;;;;;;;36.20;47.44;100683.28;20887722;28;20053;-73
2023/08/16 12:58:05;;;;;;;13.38;6.35;;;;;;;35.98;48.78;100675.22;20886102;28;20048;-71
2023/08/16 13:08:28;;;;;;;11.27;6.50;;;;;;;35.62;51.14;100665.72;20883161;28;20045;-73
2023/08/16 13:18:52;;;;;;;10.32;6.35;;;;;;;35.31;53.74;100661.25;20918290;28;20057;-71
2023/08/16 13:29:06;;;;;;;12.20;6.60;;;;;;;35.11;54.56;100654.75;20890139;28;20080;-72
2023/08/16 13:39:30;;;;;;;10.50;5.95;;;;;;;34.66;57.70;100655.00;20893236;28;20056;-72
2023/08/16 13:49:53;;;;;;;11.30;7.50;;;;;;;34.27;64.08;100645.59;20894796;28;20045;-74
2023/08/16 14:00:18;;;;;;;10.40;7.05;;;;;;;33.94;67.66;100651.16;20888992;28;20041;-72
2023/08/16 14:10:22;;;;;;;12.77;7.18;;;;;;;33.96;69.04;100661.00;20897038;28;20041;-71
2023/08/16 14:20:46;;;;;;;12.10;7.00;;;;;;;33.79;72.10;100641.50;20920721;28;20076;-72
2023/08/16 14:30:55;;;;;;;12.60;7.60;;;;;;;33.52;74.87;100653.69;20891714;28;20715;-73
2023/08/16 14:41:20;;;;;;;11.43;7.18;;;;;;;33.65;74.99;100656.28;20908035;28;20060;-73
2023/08/16 14:51:43;;;;;;;14.55;7.03;;;;;;;33.77;74.82;100648.94;20909878;28;20103;-73
2023/08/16 15:02:07;;;;;;;13.30;7.50;;;;;;;33.38;77.49;100655.81;20910142;28;20060;-73
2023/08/16 15:12:31;;;;;;;11.05;7.22;;;;;;;32.80;78.19;100652.25;20860073;28;20468;-73
2023/08/16 15:22:56;;;;;;;13.75;7.45;;;;;;;32.13;83.78;100654.66;20899691;28;20044;-73
2023/08/16 15:33:18;;;;;;;18.30;8.77;;;;;;;31.79;87.00;100647.25;20895696;28;20060;-73
2023/08/16 15:43:43;;;;;;;14.55;8.43;;;;;;;31.60;89.98;100659.53;20907490;28;20261;-73
2023/08/16 15:54:06;;;;;;;12.75;8.38;;;;;;;31.40;92.14;100657.34;20928499;28;20094;-72
2023/08/16 16:04:30;;;;;;;15.35;9.43;;;;;;;31.07;96.81;100646.16;20937353;28;20049;-73
2023/08/16 16:14:45;;;;;;;14.15;8.00;;;;;;;30.89;98.01;100648.31;20908751;28;20515;-72
2023/08/16 16:25:10;;;;;;;14.73;9.70;;;;;;;30.63;100.00;100646.53;20938784;28;20049;-74
2023/08/16 16:35:18;;;;;;;13.38;9.48;;;;;;;30.45;100.00;100641.34;20924531;28;20063;-73
2023/08/16 16:45:42;;;;;;;14.88;9.60;;;;;;;30.28;100.00;100638.91;20907165;28;20041;-74
2023/08/16 16:56:05;;;;;;;16.02;10.05;;;;;;;30.09;100.00;100639.28;20891837;28;20049;-74
2023/08/16 17:06:29;;;;;;;15.05;10.35;;;;;;;29.92;100.00;100638.66;20885466;28;20052;-73
2023/08/16 17:16:52;;;;;;;14.52;10.35;;;;;;;29.74;100.00;100643.44;20904926;28;20064;-74
2023/08/16 17:27:15;;;;;;;14.63;10.82;;;;;;;29.57;100.00;100643.66;20901777;28;20048;-74
2023/08/16 17:37:38;;;;;;;16.90;10.65;;;;;;;29.39;100.00;100643.03;20894925;28;20063;-73
2023/08/16 17:48:02;;;;;;;15.13;10.32;;;;;;;29.28;100.00;100649.09;20861924;28;20154;-74
2023/08/16 17:58:25;;;;;;;13.55;9.88;;;;;;;29.17;100.00;100656.19;20898003;28;20061;-74
2023/08/16 18:08:50;;;;;;;19.05;9.93;;;;;;;29.05;100.00;100648.81;20970245;28;20057;-74
2023/08/16 18:19:12;;;;;;;16.77;11.98;;;;;;;28.95;100.00;100653.94;20908334;28;20570;-73
2023/08/16 18:29:37;;;;;;;15.40;10.60;;;;;;;28.82;100.00;100652.97;20872708;28;20044;-75
2023/08/16 18:40:00;;;;;;;16.48;10.43;;;;;;;28.73;100.00;100653.50;20889430;28;20143;-75
2023/08/16 18:50:05;;;;;;;26.02;19.42;;;;;;;28.65;100.00;100655.81;20881379;28;20045;-71
2023/08/16 19:00:28;;;;;;;14.48;9.45;;;;;;;28.51;100.00;100660.25;20885847;28;20098;-75
2023/08/16 19:10:52;;;;;;;18.05;10.73;;;;;;;28.42;100.00;100655.34;20874027;28;20048;-73
2023/08/16 19:21:15;;;;;;;15.35;10.73;;;;;;;28.32;100.00;100651.44;20871207;28;20080;-74
2023/08/16 19:31:39;;;;;;;14.98;10.52;;;;;;;28.25;100.00;100657.34;20876976;28;20390;-75
2023/08/16 19:41:41;;;;;;;17.95;10.38;;;;;;;28.16;100.00;100647.88;20885290;28;20504;-74
2023/08/16 19:52:06;;;;;;;14.30;10.02;;;;;;;28.06;100.00;100643.94;20877958;28;20049;-75
2023/08/16 20:02:28;;;;;;;14.48;9.77;;;;;;;27.98;100.00;100633.53;20863658;28;20571;-75
2023/08/16 20:12:52;;;;;;;14.68;10.30;;;;;;;27.89;100.00;100630.50;20921098;28;20053;-74
2023/08/16 20:23:14;;;;;;;14.35;9.88;;;;;;;27.77;100.00;100635.66;20903499;28;20049;-75
2023/08/16 20:33:40;;;;;;;13.60;10.35;;;;;;;27.76;100.00;100623.03;20930122;28;20052;-74
2023/08/16 20:43:52;;;;;;;15.80;10.00;;;;;;;27.66;100.00;100624.53;20906904;28;20056;-75
2023/08/16 20:54:16;;;;;;;16.60;10.15;;;;;;;27.57;100.00;100613.34;20898228;28;20049;-75
2023/08/16 21:04:38;;;;;;;14.43;9.68;;;;;;;27.48;100.00;100601.16;20901008;28;20045;-74
2023/08/16 21:15:03;;;;;;;12.82;9.43;;;;;;;27.41;100.00;100590.75;20931451;28;20057;-75
2023/08/16 21:25:25;;;;;;;12.90;9.27;;;;;;;27.32;100.00;100592.13;20889699;28;20080;-75
2023/08/16 21:35:53;;;;;;;12.82;9.32;;;;;;;27.25;100.00;100593.44;20887543;28;20067;-73
2023/08/16 21:45:56;;;;;;;13.05;9.63;;;;;;;27.20;100.00;100587.41;20902796;28;20060;-74
2023/08/16 21:56:20;;;;;;;16.88;9.80;;;;;;;27.11;100.00;100580.63;20887657;28;20127;-75
2023/08/16 22:06:42;;;;;;;14.77;10.05;;;;;;;27.04;100.00;100567.53;20888361;28;20045;-75
2023/08/16 22:17:06;;;;;;;14.05;9.68;;;;;;;26.93;100.00;100558.16;20899495;28;20056;-74
2023/08/16 22:27:29;;;;;;;12.75;8.82;;;;;;;26.84;100.00;100555.06;20861824;28;20137;-75
2023/08/16 22:37:53;;;;;;;17.50;9.90;;;;;;;26.82;100.00;100551.56;20925333;28;20081;-75
2023/08/16 22:48:16;;;;;;;17.05;9.65;;;;;;;26.70;100.00;100550.41;20884475;28;20048;-75
2023/08/16 22:58:43;;;;;;;14.00;9.55;;;;;;;26.63;100.00;100532.72;20892531;28;20049;-75
2023/08/16 23:09:06;;;;;;;13.52;10.13;;;;;;;26.52;100.00;100522.44;20891792;28;20044;-75
2023/08/16 23:19:30;;;;;;;13.00;9.43;;;;;;;26.42;100.00;100534.75;20836283;28;20496;-75
2023/08/16 23:29:53;;;;;;;12.38;10.55;;;;;;;26.31;100.00;100533.59;20917356;28;20045;-75
2023/08/16 23:40:17;;;;;;;14.30;9.25;;;;;;;26.25;100.00;100523.09;20909676;28;20049;-75
2023/08/16 23:50:20;;;;;;;15.85;10.90;;;;;;;26.12;100.00;100529.09;20904756;28;20132;-75
